Florence Villa, Florida
Current Conditions -  °F | °C
As of 11:53 PM on Monday 20 Oct 2014 (Local Time) from KGIF Reporting Station
Clear Clear  
Wind Chill: 74°   Ceiling: Unl
Heat Index: 74°   Visibility: 10mi
Dew Point: 67°   Wind: 6mph
Humidity: 79%   Direction: 100°E
Pressure: 29.99"   Gusts: NA
Location:  28.0577°N, 81.7042°W
Report Text: KGIF 210353Z AUTO 10005KT 10SM CLR 23/19 A2999 RMK AO2 SLP152 T02330194
Loading
Personal Weather Stations






























Interactive Weather Map
Tropical Storm Tracking
New forecast layout! Learn more

10-Day Weather Forecast

Advertisements
Track Severe Weather on mobile